sensor_id;sensor_type;location;lat;lon;timestamp;pressure;altitude;pressure_sealevel;temperature;humidity
44920;BME280;30655;53.094;6.072;2022-07-24T00:01:02;101816.34;;;16.25;75.75
44920;BME280;30655;53.094;6.072;2022-07-24T00:03:49;101807.69;;;16.18;75.52
44920;BME280;30655;53.094;6.072;2022-07-24T00:06:38;102003.97;;;17.46;75.50
44920;BME280;30655;53.094;6.072;2022-07-24T00:09:37;101800.59;;;16.17;75.75
44920;BME280;30655;53.094;6.072;2022-07-24T00:12:23;101998.84;;;17.35;76.03
44920;BME280;30655;53.094;6.072;2022-07-24T00:15:23;101913.19;;;16.82;75.86
44920;BME280;30655;53.094;6.072;2022-07-24T00:18:15;102011.69;;;17.34;76.02
44920;BME280;30655;53.094;6.072;2022-07-24T00:20:50;101797.13;;;16.01;76.22
44920;BME280;30655;53.094;6.072;2022-07-24T00:23:21;102021.03;;;17.33;76.43
44920;BME280;30655;53.094;6.072;2022-07-24T00:26:04;101823.75;;;16.19;76.53
44920;BME280;30655;53.094;6.072;2022-07-24T00:28:46;101979.59;;;17.16;76.73
44920;BME280;30655;53.094;6.072;2022-07-24T00:31:16;101989.94;;;17.19;77.53
44920;BME280;30655;53.094;6.072;2022-07-24T00:33:49;102000.84;;;17.24;76.81
44920;BME280;30655;53.094;6.072;2022-07-24T00:36:32;101855.31;;;16.35;76.71
44920;BME280;30655;53.094;6.072;2022-07-24T00:39:04;101987.53;;;17.17;76.86
44920;BME280;30655;53.094;6.072;2022-07-24T00:41:48;101907.28;;;16.64;76.93
44920;BME280;30655;53.094;6.072;2022-07-24T00:44:18;101991.63;;;17.15;77.06
44920;BME280;30655;53.094;6.072;2022-07-24T00:46:46;101800.69;;;15.97;77.22
44920;BME280;30655;53.094;6.072;2022-07-24T00:49:38;101782.75;;;15.85;77.20
44920;BME280;30655;53.094;6.072;2022-07-24T00:52:30;101818.69;;;15.98;77.56
44920;BME280;30655;53.094;6.072;2022-07-24T00:55:04;101958.44;;;16.98;77.54
44920;BME280;30655;53.094;6.072;2022-07-24T00:57:49;101939.41;;;16.83;77.62
44920;BME280;30655;53.094;6.072;2022-07-24T01:00:29;101900.53;;;16.52;77.93
44920;BME280;30655;53.094;6.072;2022-07-24T01:02:56;101933.97;;;16.77;77.93
44920;BME280;30655;53.094;6.072;2022-07-24T01:05:31;101936.13;;;16.81;78.08
44920;BME280;30655;53.094;6.072;2022-07-24T01:08:00;101874.09;;;16.47;78.09
44920;BME280;30655;53.094;6.072;2022-07-24T01:10:45;101777.63;;;15.79;78.18
44920;BME280;30655;53.094;6.072;2022-07-24T01:13:29;101762.06;;;15.79;78.23
44920;BME280;30655;53.094;6.072;2022-07-24T01:15:59;101870.88;;;16.35;78.32
44920;BME280;30655;53.094;6.072;2022-07-24T01:18:28;101969.28;;;17.08;78.47
44920;BME280;30655;53.094;6.072;2022-07-24T01:21:23;101772.72;;;15.76;78.61
44920;BME280;30655;53.094;6.072;2022-07-24T01:23:53;101762.06;;;15.79;78.99
44920;BME280;30655;53.094;6.072;2022-07-24T01:26:40;101958.91;;;17.05;79.17
44920;BME280;30655;53.094;6.072;2022-07-24T01:29:07;101747.66;;;15.74;78.96
44920;BME280;30655;53.094;6.072;2022-07-24T01:32:01;101823.00;;;16.14;79.28
44920;BME280;30655;53.094;6.072;2022-07-24T01:34:33;101924.88;;;16.92;78.81
44920;BME280;30655;53.094;6.072;2022-07-24T01:37:16;101745.47;;;15.76;79.04
44920;BME280;30655;53.094;6.072;2022-07-24T01:39:46;101758.19;;;15.90;78.82
44920;BME280;30655;53.094;6.072;2022-07-24T01:42:14;101939.75;;;17.10;79.05
44920;BME280;30655;53.094;6.072;2022-07-24T01:44:49;101797.31;;;16.15;78.97
44920;BME280;30655;53.094;6.072;2022-07-24T01:47:29;101857.44;;;16.49;79.39
44920;BME280;30655;53.094;6.072;2022-07-24T01:50:02;101947.44;;;17.08;79.37
44920;BME280;30655;53.094;6.072;2022-07-24T01:52:38;101947.13;;;17.09;79.27
44920;BME280;30655;53.094;6.072;2022-07-24T01:55:20;101944.41;;;17.09;79.22
44920;BME280;30655;53.094;6.072;2022-07-24T01:58:02;101820.16;;;16.29;79.50
44920;BME280;30655;53.094;6.072;2022-07-24T02:00:41;101885.94;;;16.76;79.21
44920;BME280;30655;53.094;6.072;2022-07-24T02:03:15;101947.41;;;17.13;79.12
44920;BME280;30655;53.094;6.072;2022-07-24T02:05:46;101833.72;;;16.39;79.21
44920;BME280;30655;53.094;6.072;2022-07-24T02:08:15;101907.22;;;16.74;79.44
44920;BME280;30655;53.094;6.072;2022-07-24T02:10:47;101828.03;;;16.35;79.13
44920;BME280;30655;53.094;6.072;2022-07-24T02:13:14;101868.56;;;16.62;79.38
44920;BME280;30655;53.094;6.072;2022-07-24T02:15:42;101838.69;;;16.32;79.23
44920;BME280;30655;53.094;6.072;2022-07-24T02:18:14;101896.28;;;16.79;79.47
44920;BME280;30655;53.094;6.072;2022-07-24T02:20:47;101935.69;;;17.07;79.39
44920;BME280;30655;53.094;6.072;2022-07-24T02:26:12;101771.56;;;15.92;79.17
44920;BME280;30655;53.094;6.072;2022-07-24T02:28:40;101827.25;;;16.30;79.49
44920;BME280;30655;53.094;6.072;2022-07-24T02:31:07;101836.97;;;16.46;79.31
44920;BME280;30655;53.094;6.072;2022-07-24T02:33:37;101934.28;;;17.10;79.36
44920;BME280;30655;53.094;6.072;2022-07-24T02:36:06;101705.41;;;15.71;79.40
44920;BME280;30655;53.094;6.072;2022-07-24T02:38:35;101925.28;;;17.09;79.35
44920;BME280;30655;53.094;6.072;2022-07-24T02:41:07;101897.25;;;16.94;79.41
44920;BME280;30655;53.094;6.072;2022-07-24T02:43:41;101923.94;;;17.07;79.68
44920;BME280;30655;53.094;6.072;2022-07-24T02:46:09;101864.66;;;16.73;79.69
44920;BME280;30655;53.094;6.072;2022-07-24T02:48:40;101732.34;;;15.83;79.41
44920;BME280;30655;53.094;6.072;2022-07-24T02:51:07;101743.44;;;15.97;79.59
44920;BME280;30655;53.094;6.072;2022-07-24T02:53:47;101781.78;;;16.15;79.14
44920;BME280;30655;53.094;6.072;2022-07-24T02:56:13;101728.78;;;15.87;79.43
44920;BME280;30655;53.094;6.072;2022-07-24T02:58:46;101836.66;;;16.53;79.45
44920;BME280;30655;53.094;6.072;2022-07-24T03:01:13;101859.53;;;16.67;79.78
44920;BME280;30655;53.094;6.072;2022-07-24T03:03:40;101907.00;;;17.05;79.61
44920;BME280;30655;53.094;6.072;2022-07-24T03:06:11;101817.59;;;16.48;79.66
44920;BME280;30655;53.094;6.072;2022-07-24T03:08:45;101897.53;;;16.97;79.69
44920;BME280;30655;53.094;6.072;2022-07-24T03:11:22;101830.91;;;16.59;79.56
44920;BME280;30655;53.094;6.072;2022-07-24T03:13:53;101893.69;;;16.98;79.69
44920;BME280;30655;53.094;6.072;2022-07-24T03:16:22;101852.66;;;16.69;79.55
44920;BME280;30655;53.094;6.072;2022-07-24T03:18:57;101683.34;;;15.73;79.62
44920;BME280;30655;53.094;6.072;2022-07-24T03:21:31;101660.81;;;15.57;79.65
44920;BME280;30655;53.094;6.072;2022-07-24T03:24:22;101688.78;;;15.73;79.42
44920;BME280;30655;53.094;6.072;2022-07-24T03:27:02;101844.78;;;16.68;80.30
44920;BME280;30655;53.094;6.072;2022-07-24T03:29:33;101695.88;;;15.74;79.78
44920;BME280;30655;53.094;6.072;2022-07-24T03:32:06;101773.25;;;16.27;79.75
44920;BME280;30655;53.094;6.072;2022-07-24T03:34:36;101887.13;;;16.99;80.14
44920;BME280;30655;53.094;6.072;2022-07-24T03:37:06;101881.66;;;16.99;80.01
44920;BME280;30655;53.094;6.072;2022-07-24T03:39:39;101823.19;;;16.71;79.97
44920;BME280;30655;53.094;6.072;2022-07-24T03:42:07;101759.88;;;16.25;80.18
44920;BME280;30655;53.094;6.072;2022-07-24T03:44:36;101755.81;;;16.23;79.92
44920;BME280;30655;53.094;6.072;2022-07-24T03:47:06;101687.38;;;15.80;80.04
44920;BME280;30655;53.094;6.072;2022-07-24T03:49:36;101668.00;;;15.82;79.88
44920;BME280;30655;53.094;6.072;2022-07-24T03:52:11;101879.66;;;17.10;79.89
44920;BME280;30655;53.094;6.072;2022-07-24T03:54:42;101873.38;;;17.09;79.83
44920;BME280;30655;53.094;6.072;2022-07-24T03:57:12;101875.00;;;17.10;80.04
44920;BME280;30655;53.094;6.072;2022-07-24T03:59:43;101899.31;;;17.12;79.68
44920;BME280;30655;53.094;6.072;2022-07-24T04:02:10;101877.19;;;17.13;79.65
44920;BME280;30655;53.094;6.072;2022-07-24T04:04:43;101835.31;;;16.89;79.41
44920;BME280;30655;53.094;6.072;2022-07-24T04:07:16;101842.75;;;16.84;79.64
44920;BME280;30655;53.094;6.072;2022-07-24T04:09:59;101826.38;;;16.84;79.66
44920;BME280;30655;53.094;6.072;2022-07-24T04:12:35;101809.06;;;16.59;79.53
44920;BME280;30655;53.094;6.072;2022-07-24T04:15:08;101847.00;;;16.95;79.66
44920;BME280;30655;53.094;6.072;2022-07-24T04:17:37;101651.97;;;15.75;79.60
44920;BME280;30655;53.094;6.072;2022-07-24T04:20:08;101889.16;;;17.17;79.68
44920;BME280;30655;53.094;6.072;2022-07-24T04:22:40;101835.03;;;16.91;79.86
44920;BME280;30655;53.094;6.072;2022-07-24T04:25:24;101677.78;;;15.88;80.05
44920;BME280;30655;53.094;6.072;2022-07-24T04:27:59;101837.69;;;17.01;79.75
44920;BME280;30655;53.094;6.072;2022-07-24T04:30:31;101661.69;;;15.91;79.81
44920;BME280;30655;53.094;6.072;2022-07-24T04:32:58;101831.72;;;16.94;79.96
44920;BME280;30655;53.094;6.072;2022-07-24T04:35:28;101770.00;;;16.64;79.60
44920;BME280;30655;53.094;6.072;2022-07-24T04:37:59;101662.97;;;15.99;79.86
44920;BME280;30655;53.094;6.072;2022-07-24T04:40:28;101817.47;;;17.02;79.90
44920;BME280;30655;53.094;6.072;2022-07-24T04:42:58;101854.41;;;17.23;79.86
44920;BME280;30655;53.094;6.072;2022-07-24T04:45:26;101680.66;;;16.07;80.49
44920;BME280;30655;53.094;6.072;2022-07-24T04:48:01;101674.63;;;16.10;80.14
44920;BME280;30655;53.094;6.072;2022-07-24T04:50:33;101699.38;;;16.23;80.26
44920;BME280;30655;53.094;6.072;2022-07-24T04:53:08;101789.66;;;16.95;80.61
44920;BME280;30655;53.094;6.072;2022-07-24T04:55:52;101611.03;;;15.80;80.51
44920;BME280;30655;53.094;6.072;2022-07-24T04:58:35;101786.38;;;16.98;80.51
44920;BME280;30655;53.094;6.072;2022-07-24T05:01:09;101645.16;;;16.12;80.45
44920;BME280;30655;53.094;6.072;2022-07-24T05:03:43;101839.94;;;17.23;81.44
44920;BME280;30655;53.094;6.072;2022-07-24T05:06:14;101845.63;;;17.26;81.03
44920;BME280;30655;53.094;6.072;2022-07-24T05:08:56;101861.13;;;17.36;80.77
44920;BME280;30655;53.094;6.072;2022-07-24T05:11:44;101653.31;;;16.17;80.84
44920;BME280;30655;53.094;6.072;2022-07-24T05:14:41;101674.69;;;16.39;80.90
44920;BME280;30655;53.094;6.072;2022-07-24T05:17:14;101644.47;;;16.30;80.48
44920;BME280;30655;53.094;6.072;2022-07-24T05:19:52;101756.31;;;16.98;80.79
44920;BME280;30655;53.094;6.072;2022-07-24T05:22:21;101792.25;;;17.34;80.67
44920;BME280;30655;53.094;6.072;2022-07-24T05:24:52;101851.53;;;17.67;80.46
44920;BME280;30655;53.094;6.072;2022-07-24T05:27:31;101822.41;;;17.52;80.48
44920;BME280;30655;53.094;6.072;2022-07-24T05:30:04;101631.72;;;16.49;80.45
44920;BME280;30655;53.094;6.072;2022-07-24T05:32:42;101776.56;;;17.44;80.27
44920;BME280;30655;53.094;6.072;2022-07-24T05:38:12;101653.28;;;16.79;80.10
44920;BME280;30655;53.094;6.072;2022-07-24T05:40:42;101673.09;;;16.90;80.11
44920;BME280;30655;53.094;6.072;2022-07-24T05:43:18;101651.13;;;16.76;80.13
44920;BME280;30655;53.094;6.072;2022-07-24T05:45:49;101833.34;;;18.00;80.68
44920;BME280;30655;53.094;6.072;2022-07-24T05:48:25;101826.50;;;18.02;80.44
44920;BME280;30655;53.094;6.072;2022-07-24T05:50:58;101766.06;;;17.80;80.35
44920;BME280;30655;53.094;6.072;2022-07-24T05:53:27;101687.97;;;17.27;80.18
44920;BME280;30655;53.094;6.072;2022-07-24T05:55:58;101681.56;;;17.36;80.18
44920;BME280;30655;53.094;6.072;2022-07-24T05:58:38;101661.75;;;17.26;79.93
44920;BME280;30655;53.094;6.072;2022-07-24T06:01:08;101763.50;;;18.08;80.11
44920;BME280;30655;53.094;6.072;2022-07-24T06:03:41;101819.03;;;18.45;79.91
44920;BME280;30655;53.094;6.072;2022-07-24T06:06:11;101660.19;;;17.43;79.62
44920;BME280;30655;53.094;6.072;2022-07-24T06:08:41;101735.31;;;18.07;79.89
44920;BME280;30655;53.094;6.072;2022-07-24T06:11:25;101755.34;;;18.21;80.06
44920;BME280;30655;53.094;6.072;2022-07-24T06:14:07;101710.94;;;17.92;79.91
44920;BME280;30655;53.094;6.072;2022-07-24T06:16:34;101719.94;;;18.11;79.96
44920;BME280;30655;53.094;6.072;2022-07-24T06:19:11;101639.31;;;17.71;79.81
44920;BME280;30655;53.094;6.072;2022-07-24T06:21:48;101827.88;;;18.93;79.94
44920;BME280;30655;53.094;6.072;2022-07-24T06:24:28;101810.50;;;18.84;79.83
44920;BME280;30655;53.094;6.072;2022-07-24T06:26:58;101638.56;;;17.84;79.66
44920;BME280;30655;53.094;6.072;2022-07-24T06:29:42;101826.78;;;19.08;79.85
44920;BME280;30655;53.094;6.072;2022-07-24T06:32:09;101784.94;;;18.89;79.61
44920;BME280;30655;53.094;6.072;2022-07-24T06:34:43;101822.34;;;19.12;79.84
44920;BME280;30655;53.094;6.072;2022-07-24T06:37:10;101840.22;;;19.23;79.64
44920;BME280;30655;53.094;6.072;2022-07-24T06:39:50;101773.69;;;18.90;79.70
44920;BME280;30655;53.094;6.072;2022-07-24T06:42:24;101825.22;;;19.34;79.87
44920;BME280;30655;53.094;6.072;2022-07-24T06:44:54;101787.94;;;19.20;79.89
44920;BME280;30655;53.094;6.072;2022-07-24T06:47:24;101622.91;;;18.22;79.68
44920;BME280;30655;53.094;6.072;2022-07-24T06:50:04;101755.97;;;19.15;79.67
44920;BME280;30655;53.094;6.072;2022-07-24T06:52:39;101694.63;;;18.84;79.67
44920;BME280;30655;53.094;6.072;2022-07-24T06:55:08;101778.78;;;19.57;79.74
44920;BME280;30655;53.094;6.072;2022-07-24T07:00:26;101777.00;;;19.88;78.72
44920;BME280;30655;53.094;6.072;2022-07-24T07:03:12;101710.69;;;19.59;77.93
44920;BME280;30655;53.094;6.072;2022-07-24T07:05:53;101593.69;;;19.05;77.43
44920;BME280;30655;53.094;6.072;2022-07-24T07:11:46;101701.06;;;19.97;76.35
44920;BME280;30655;53.094;6.072;2022-07-24T07:14:20;101790.56;;;20.56;76.33
44920;BME280;30655;53.094;6.072;2022-07-24T07:16:48;101641.78;;;19.74;76.10
44920;BME280;30655;53.094;6.072;2022-07-24T07:19:24;101642.59;;;19.74;75.48
44920;BME280;30655;53.094;6.072;2022-07-24T07:21:59;101790.66;;;20.74;75.61
44920;BME280;30655;53.094;6.072;2022-07-24T07:24:29;101721.34;;;20.46;75.20
44920;BME280;30655;53.094;6.072;2022-07-24T07:26:56;101731.56;;;20.54;74.71
44920;BME280;30655;53.094;6.072;2022-07-24T07:29:23;101766.38;;;20.89;74.89
44920;BME280;30655;53.094;6.072;2022-07-24T07:32:00;101817.59;;;21.38;74.60
44920;BME280;30655;53.094;6.072;2022-07-24T07:34:30;101757.72;;;21.04;74.31
44920;BME280;30655;53.094;6.072;2022-07-24T07:36:57;101699.44;;;20.85;74.08
44920;BME280;30655;53.094;6.072;2022-07-24T07:39:27;101830.31;;;21.65;73.55
44920;BME280;30655;53.094;6.072;2022-07-24T07:41:53;101715.38;;;21.05;73.25
44920;BME280;30655;53.094;6.072;2022-07-24T07:44:24;101814.50;;;21.79;73.09
44920;BME280;30655;53.094;6.072;2022-07-24T07:46:51;101765.25;;;21.61;73.09
44920;BME280;30655;53.094;6.072;2022-07-24T07:49:19;101771.91;;;21.68;72.92
44920;BME280;30655;53.094;6.072;2022-07-24T07:51:47;101800.16;;;22.00;72.68
44920;BME280;30655;53.094;6.072;2022-07-24T07:54:15;101652.81;;;21.11;72.23
44920;BME280;30655;53.094;6.072;2022-07-24T07:56:41;101648.47;;;21.19;71.68
44920;BME280;30655;53.094;6.072;2022-07-24T07:59:11;101778.31;;;22.12;71.47
44920;BME280;30655;53.094;6.072;2022-07-24T08:01:37;101682.38;;;21.54;71.03
44920;BME280;30655;53.094;6.072;2022-07-24T08:04:05;101690.31;;;21.55;71.00
44920;BME280;30655;53.094;6.072;2022-07-24T08:06:33;101805.06;;;22.46;71.50
44920;BME280;30655;53.094;6.072;2022-07-24T08:09:00;101696.69;;;21.99;71.29
44920;BME280;30655;53.094;6.072;2022-07-24T08:11:28;101782.34;;;22.57;70.42
44920;BME280;30655;53.094;6.072;2022-07-24T08:13:58;101707.38;;;22.17;70.04
44920;BME280;30655;53.094;6.072;2022-07-24T08:16:26;101814.28;;;22.93;69.82
44920;BME280;30655;53.094;6.072;2022-07-24T08:18:53;101706.53;;;22.43;69.08
44920;BME280;30655;53.094;6.072;2022-07-24T08:21:19;101695.53;;;22.34;68.65
44920;BME280;30655;53.094;6.072;2022-07-24T08:23:47;101785.56;;;22.94;67.88
44920;BME280;30655;53.094;6.072;2022-07-24T08:26:15;101792.72;;;22.95;68.12
44920;BME280;30655;53.094;6.072;2022-07-24T08:28:42;101781.69;;;22.95;67.79
44920;BME280;30655;53.094;6.072;2022-07-24T08:31:09;101794.41;;;23.16;67.67
44920;BME280;30655;53.094;6.072;2022-07-24T08:33:36;101796.50;;;23.28;67.21
44920;BME280;30655;53.094;6.072;2022-07-24T08:36:06;101788.19;;;23.37;66.21
44920;BME280;30655;53.094;6.072;2022-07-24T08:38:35;101673.91;;;22.62;65.16
44920;BME280;30655;53.094;6.072;2022-07-24T08:41:04;101660.16;;;22.53;65.54
44920;BME280;30655;53.094;6.072;2022-07-24T08:43:32;101677.66;;;22.74;65.42
44920;BME280;30655;53.094;6.072;2022-07-24T08:46:00;101758.19;;;23.35;64.79
44920;BME280;30655;53.094;6.072;2022-07-24T08:48:28;101689.94;;;22.86;65.04
44920;BME280;30655;53.094;6.072;2022-07-24T08:50:56;101648.16;;;22.66;64.45
44920;BME280;30655;53.094;6.072;2022-07-24T08:53:24;101691.34;;;23.00;63.96
44920;BME280;30655;53.094;6.072;2022-07-24T08:55:53;101804.59;;;23.71;64.25
44920;BME280;30655;53.094;6.072;2022-07-24T08:58:25;101634.25;;;22.54;63.50
44920;BME280;30655;53.094;6.072;2022-07-24T09:00:52;101793.41;;;23.68;63.89
44920;BME280;30655;53.094;6.072;2022-07-24T09:03:21;101801.19;;;23.74;63.95
44920;BME280;30655;53.094;6.072;2022-07-24T09:05:58;101803.44;;;23.81;63.63
44920;BME280;30655;53.094;6.072;2022-07-24T09:08:28;101792.00;;;23.91;64.09
44920;BME280;30655;53.094;6.072;2022-07-24T09:10:56;101696.63;;;23.43;64.09
44920;BME280;30655;53.094;6.072;2022-07-24T09:13:28;101701.72;;;23.62;63.72
44920;BME280;30655;53.094;6.072;2022-07-24T09:16:04;101776.16;;;24.29;63.49
44920;BME280;30655;53.094;6.072;2022-07-24T09:18:36;101753.16;;;24.37;62.98
44920;BME280;30655;53.094;6.072;2022-07-24T09:21:16;101650.63;;;23.97;61.68
44920;BME280;30655;53.094;6.072;2022-07-24T09:23:46;101659.22;;;24.17;62.57
44920;BME280;30655;53.094;6.072;2022-07-24T09:26:19;101618.88;;;24.36;60.59
44920;BME280;30655;53.094;6.072;2022-07-24T09:28:49;101746.47;;;25.53;59.56
44920;BME280;30655;53.094;6.072;2022-07-24T09:31:27;101638.47;;;25.13;58.33
44920;BME280;30655;53.094;6.072;2022-07-24T09:33:57;101742.88;;;25.89;57.81
44920;BME280;30655;53.094;6.072;2022-07-24T09:36:30;101674.47;;;25.77;57.85
44920;BME280;30655;53.094;6.072;2022-07-24T09:38:58;101623.81;;;25.77;56.91
44920;BME280;30655;53.094;6.072;2022-07-24T09:41:25;101802.22;;;26.95;55.83
44920;BME280;30655;53.094;6.072;2022-07-24T09:44:03;101612.53;;;25.97;53.56
44920;BME280;30655;53.094;6.072;2022-07-24T09:46:46;101788.09;;;27.48;54.68
44920;BME280;30655;53.094;6.072;2022-07-24T09:49:19;101720.97;;;27.11;53.15
44920;BME280;30655;53.094;6.072;2022-07-24T09:52:10;101712.38;;;26.56;50.44
44920;BME280;30655;53.094;6.072;2022-07-24T09:54:38;101762.53;;;26.79;52.54
44920;BME280;30655;53.094;6.072;2022-07-24T09:57:21;101791.16;;;27.27;50.64
44920;BME280;30655;53.094;6.072;2022-07-24T09:59:54;101788.75;;;27.57;51.26
44920;BME280;30655;53.094;6.072;2022-07-24T10:02:24;101787.97;;;27.91;51.99
44920;BME280;30655;53.094;6.072;2022-07-24T10:04:52;101799.81;;;28.23;50.99
44920;BME280;30655;53.094;6.072;2022-07-24T10:07:22;101798.34;;;28.67;50.11
44920;BME280;30655;53.094;6.072;2022-07-24T10:09:53;101781.81;;;28.94;49.39
44920;BME280;30655;53.094;6.072;2022-07-24T10:12:22;101783.34;;;29.14;49.13
44920;BME280;30655;53.094;6.072;2022-07-24T10:14:52;101788.16;;;29.63;48.09
44920;BME280;30655;53.094;6.072;2022-07-24T10:17:21;101782.66;;;29.70;46.92
44920;BME280;30655;53.094;6.072;2022-07-24T10:19:51;101769.75;;;29.32;46.56
44920;BME280;30655;53.094;6.072;2022-07-24T10:22:20;101768.84;;;29.05;47.25
44920;BME280;30655;53.094;6.072;2022-07-24T10:25:03;101793.91;;;28.82;46.18
44920;BME280;30655;53.094;6.072;2022-07-24T10:28:01;101662.63;;;27.96;47.99
44920;BME280;30655;53.094;6.072;2022-07-24T10:30:35;101803.41;;;29.23;48.16
44920;BME280;30655;53.094;6.072;2022-07-24T10:33:26;101781.16;;;29.49;46.37
44920;BME280;30655;53.094;6.072;2022-07-24T10:36:03;101617.16;;;28.23;45.85
44920;BME280;30655;53.094;6.072;2022-07-24T10:38:38;101806.75;;;29.32;46.07
44920;BME280;30655;53.094;6.072;2022-07-24T10:48:25;101726.78;;;29.59;44.01
44920;BME280;30655;53.094;6.072;2022-07-24T10:51:05;101725.59;;;29.86;44.28
44920;BME280;30655;53.094;6.072;2022-07-24T10:53:57;101616.69;;;29.39;42.27
44920;BME280;30655;53.094;6.072;2022-07-24T10:56:26;101632.31;;;29.77;43.21
44920;BME280;30655;53.094;6.072;2022-07-24T10:58:56;101737.84;;;30.75;43.00
44920;BME280;30655;53.094;6.072;2022-07-24T11:01:36;101732.47;;;30.96;41.25
44920;BME280;30655;53.094;6.072;2022-07-24T11:04:26;101755.72;;;31.07;40.23
44920;BME280;30655;53.094;6.072;2022-07-24T11:06:54;101780.84;;;31.55;40.69
44920;BME280;30655;53.094;6.072;2022-07-24T11:12:08;101783.88;;;31.32;40.14
44920;BME280;30655;53.094;6.072;2022-07-24T11:14:49;101768.66;;;31.30;39.84
44920;BME280;30655;53.094;6.072;2022-07-24T11:17:40;101782.34;;;31.42;39.68
44920;BME280;30655;53.094;6.072;2022-07-24T11:20:09;101768.75;;;31.37;40.15
44920;BME280;30655;53.094;6.072;2022-07-24T11:22:40;101731.81;;;31.13;40.88
44920;BME280;30655;53.094;6.072;2022-07-24T11:25:13;101772.94;;;31.64;41.29
44920;BME280;30655;53.094;6.072;2022-07-24T11:27:54;101769.16;;;32.00;40.23
44920;BME280;30655;53.094;6.072;2022-07-24T11:30:21;101772.41;;;32.10;39.79
44920;BME280;30655;53.094;6.072;2022-07-24T11:32:48;101776.00;;;32.03;39.95
44920;BME280;30655;53.094;6.072;2022-07-24T11:35:26;101784.47;;;32.21;37.75
44920;BME280;30655;53.094;6.072;2022-07-24T11:37:53;101769.31;;;32.25;38.81
44920;BME280;30655;53.094;6.072;2022-07-24T11:40:21;101788.56;;;32.48;38.96
44920;BME280;30655;53.094;6.072;2022-07-24T11:42:54;101756.56;;;32.35;37.41
44920;BME280;30655;53.094;6.072;2022-07-24T11:45:21;101767.75;;;32.31;37.85
44920;BME280;30655;53.094;6.072;2022-07-24T11:47:48;101760.59;;;32.44;38.17
44920;BME280;30655;53.094;6.072;2022-07-24T11:50:19;101739.00;;;32.41;38.55
44920;BME280;30655;53.094;6.072;2022-07-24T11:52:47;101765.78;;;32.46;38.03
44920;BME280;30655;53.094;6.072;2022-07-24T11:55:16;101747.81;;;32.47;38.15
44920;BME280;30655;53.094;6.072;2022-07-24T11:57:45;101737.81;;;32.46;37.86
44920;BME280;30655;53.094;6.072;2022-07-24T12:00:32;101758.28;;;32.78;37.18
44920;BME280;30655;53.094;6.072;2022-07-24T12:03:01;101756.69;;;32.67;37.35
44920;BME280;30655;53.094;6.072;2022-07-24T12:05:31;101756.72;;;32.77;37.38
44920;BME280;30655;53.094;6.072;2022-07-24T12:08:00;101748.22;;;32.63;37.26
44920;BME280;30655;53.094;6.072;2022-07-24T12:10:29;101757.91;;;32.87;36.81
44920;BME280;30655;53.094;6.072;2022-07-24T12:12:56;101754.72;;;33.03;36.26
44920;BME280;30655;53.094;6.072;2022-07-24T12:15:25;101737.47;;;32.83;36.25
44920;BME280;30655;53.094;6.072;2022-07-24T12:17:53;101750.72;;;32.89;36.40
44920;BME280;30655;53.094;6.072;2022-07-24T12:20:20;101723.03;;;32.56;36.14
44920;BME280;30655;53.094;6.072;2022-07-24T12:22:48;101748.72;;;32.97;36.20
44920;BME280;30655;53.094;6.072;2022-07-24T12:25:16;101733.50;;;33.09;36.82
44920;BME280;30655;53.094;6.072;2022-07-24T12:27:44;101741.16;;;33.26;36.01
44920;BME280;30655;53.094;6.072;2022-07-24T12:30:21;101735.13;;;33.24;35.51
44920;BME280;30655;53.094;6.072;2022-07-24T12:32:53;101713.50;;;33.00;35.22
44920;BME280;30655;53.094;6.072;2022-07-24T12:35:21;101717.91;;;33.18;35.03
44920;BME280;30655;53.094;6.072;2022-07-24T12:37:55;101719.09;;;33.35;35.27
44920;BME280;30655;53.094;6.072;2022-07-24T12:40:29;101707.91;;;33.35;34.84
44920;BME280;30655;53.094;6.072;2022-07-24T12:42:58;101732.69;;;33.54;35.08
44920;BME280;30655;53.094;6.072;2022-07-24T12:45:25;101694.28;;;33.37;34.68
44920;BME280;30655;53.094;6.072;2022-07-24T12:48:08;101712.69;;;33.52;34.55
44920;BME280;30655;53.094;6.072;2022-07-24T12:50:35;101705.09;;;33.42;35.04
44920;BME280;30655;53.094;6.072;2022-07-24T12:53:25;101722.69;;;33.43;35.10
44920;BME280;30655;53.094;6.072;2022-07-24T12:56:07;101718.28;;;33.38;33.73
44920;BME280;30655;53.094;6.072;2022-07-24T12:58:51;101712.72;;;33.27;33.79
44920;BME280;30655;53.094;6.072;2022-07-24T13:01:20;101714.72;;;33.27;35.02
44920;BME280;30655;53.094;6.072;2022-07-24T13:03:53;101706.72;;;33.18;34.17
44920;BME280;30655;53.094;6.072;2022-07-24T13:06:31;101701.88;;;33.15;34.33
44920;BME280;30655;53.094;6.072;2022-07-24T13:09:00;101702.72;;;33.02;34.72
44920;BME280;30655;53.094;6.072;2022-07-24T13:11:27;101698.28;;;33.04;34.69
44920;BME280;30655;53.094;6.072;2022-07-24T13:13:54;101707.13;;;33.03;34.81
44920;BME280;30655;53.094;6.072;2022-07-24T13:16:21;101710.31;;;32.91;34.49
44920;BME280;30655;53.094;6.072;2022-07-24T13:18:48;101705.91;;;32.89;35.16
44920;BME280;30655;53.094;6.072;2022-07-24T13:21:15;101698.28;;;32.83;34.97
44920;BME280;30655;53.094;6.072;2022-07-24T13:23:41;101703.88;;;32.65;34.85
44920;BME280;30655;53.094;6.072;2022-07-24T13:26:09;101700.31;;;32.72;34.93
44920;BME280;30655;53.094;6.072;2022-07-24T13:28:36;101690.28;;;32.64;35.22
44920;BME280;30655;53.094;6.072;2022-07-24T13:31:03;101688.25;;;32.46;34.55
44920;BME280;30655;53.094;6.072;2022-07-24T13:33:30;101691.41;;;32.48;35.05
44920;BME280;30655;53.094;6.072;2022-07-24T13:35:57;101678.63;;;32.40;35.39
44920;BME280;30655;53.094;6.072;2022-07-24T13:38:24;101678.97;;;32.28;34.77
44920;BME280;30655;53.094;6.072;2022-07-24T13:40:51;101671.00;;;32.27;35.13
44920;BME280;30655;53.094;6.072;2022-07-24T13:43:19;101644.53;;;32.10;35.22